sensor_id;sensor_type;location;lat;lon;timestamp;temperature;humidity
50570;DHT22;36525;49.398;7.614;2023-03-31T00:00:59;10.70;99.90
50570;DHT22;36525;49.398;7.614;2023-03-31T00:03:26;10.70;99.90
50570;DHT22;36525;49.398;7.614;2023-03-31T00:05:57;10.70;99.90
50570;DHT22;36525;49.398;7.614;2023-03-31T00:08:27;10.70;99.90
50570;DHT22;36525;49.398;7.614;2023-03-31T00:11:00;10.70;99.90
50570;DHT22;36525;49.398;7.614;2023-03-31T00:13:29;10.70;99.90
50570;DHT22;36525;49.398;7.614;2023-03-31T00:16:01;10.80;99.90
50570;DHT22;36525;49.398;7.614;2023-03-31T00:18:31;10.80;99.90
50570;DHT22;36525;49.398;7.614;2023-03-31T00:21:07;10.80;99.90
50570;DHT22;36525;49.398;7.614;2023-03-31T00:23:40;10.80;99.90
50570;DHT22;36525;49.398;7.614;2023-03-31T00:26:07;10.80;99.90
50570;DHT22;36525;49.398;7.614;2023-03-31T00:28:37;10.80;99.90
50570;DHT22;36525;49.398;7.614;2023-03-31T00:31:04;10.80;99.90
50570;DHT22;36525;49.398;7.614;2023-03-31T00:33:32;10.80;99.90
50570;DHT22;36525;49.398;7.614;2023-03-31T00:35:59;10.80;99.90
50570;DHT22;36525;49.398;7.614;2023-03-31T00:38:29;10.80;99.90
50570;DHT22;36525;49.398;7.614;2023-03-31T00:40:56;10.80;99.90
50570;DHT22;36525;49.398;7.614;2023-03-31T00:43:35;10.80;99.90
50570;DHT22;36525;49.398;7.614;2023-03-31T00:46:13;10.80;99.90
50570;DHT22;36525;49.398;7.614;2023-03-31T00:48:54;10.80;99.90
50570;DHT22;36525;49.398;7.614;2023-03-31T00:51:25;10.80;99.90
50570;DHT22;36525;49.398;7.614;2023-03-31T00:54:01;10.80;99.90
50570;DHT22;36525;49.398;7.614;2023-03-31T00:56:37;10.80;99.90
50570;DHT22;36525;49.398;7.614;2023-03-31T00:59:09;10.80;99.90
50570;DHT22;36525;49.398;7.614;2023-03-31T01:01:38;10.80;99.90
50570;DHT22;36525;49.398;7.614;2023-03-31T01:04:09;10.80;99.90
50570;DHT22;36525;49.398;7.614;2023-03-31T01:06:43;10.80;99.90
50570;DHT22;36525;49.398;7.614;2023-03-31T01:09:17;10.90;99.90
50570;DHT22;36525;49.398;7.614;2023-03-31T01:11:45;10.90;99.90
50570;DHT22;36525;49.398;7.614;2023-03-31T01:14:13;10.80;99.90
50570;DHT22;36525;49.398;7.614;2023-03-31T01:16:40;10.80;99.90
50570;DHT22;36525;49.398;7.614;2023-03-31T01:19:19;10.80;99.90
50570;DHT22;36525;49.398;7.614;2023-03-31T01:29:01;10.60;99.90
50570;DHT22;36525;49.398;7.614;2023-03-31T01:37:41;10.30;99.90
50570;DHT22;36525;49.398;7.614;2023-03-31T01:41:01;10.30;99.90
50570;DHT22;36525;49.398;7.614;2023-03-31T01:46:44;10.20;99.90
50570;DHT22;36525;49.398;7.614;2023-03-31T01:52:05;10.00;99.90
50570;DHT22;36525;49.398;7.614;2023-03-31T01:54:45;9.90;99.90
50570;DHT22;36525;49.398;7.614;2023-03-31T01:57:36;9.80;99.90
50570;DHT22;36525;49.398;7.614;2023-03-31T02:00:13;9.70;99.90
50570;DHT22;36525;49.398;7.614;2023-03-31T02:03:10;9.70;99.90
50570;DHT22;36525;49.398;7.614;2023-03-31T02:06:26;9.60;99.90
50570;DHT22;36525;49.398;7.614;2023-03-31T02:08:44;9.60;99.90
50570;DHT22;36525;49.398;7.614;2023-03-31T02:11:14;9.60;99.90
50570;DHT22;36525;49.398;7.614;2023-03-31T02:13:43;9.50;99.90
50570;DHT22;36525;49.398;7.614;2023-03-31T02:16:17;9.50;99.90
50570;DHT22;36525;49.398;7.614;2023-03-31T02:18:53;9.50;99.90
50570;DHT22;36525;49.398;7.614;2023-03-31T02:21:32;9.40;99.90
50570;DHT22;36525;49.398;7.614;2023-03-31T02:24:05;9.50;99.90
50570;DHT22;36525;49.398;7.614;2023-03-31T02:26:39;9.50;99.90
50570;DHT22;36525;49.398;7.614;2023-03-31T02:29:08;9.50;99.90
50570;DHT22;36525;49.398;7.614;2023-03-31T02:31:41;9.50;99.90
50570;DHT22;36525;49.398;7.614;2023-03-31T02:34:27;9.50;99.90
50570;DHT22;36525;49.398;7.614;2023-03-31T02:36:54;9.40;99.90
50570;DHT22;36525;49.398;7.614;2023-03-31T02:39:25;9.40;99.90
50570;DHT22;36525;49.398;7.614;2023-03-31T02:41:55;9.40;99.90
50570;DHT22;36525;49.398;7.614;2023-03-31T02:44:23;9.40;99.90
50570;DHT22;36525;49.398;7.614;2023-03-31T02:46:50;9.40;99.90
50570;DHT22;36525;49.398;7.614;2023-03-31T02:49:18;9.40;99.90
50570;DHT22;36525;49.398;7.614;2023-03-31T02:52:10;9.40;99.90
50570;DHT22;36525;49.398;7.614;2023-03-31T02:55:26;9.40;99.90
50570;DHT22;36525;49.398;7.614;2023-03-31T03:01:22;9.30;99.90
50570;DHT22;36525;49.398;7.614;2023-03-31T03:04:03;9.40;99.90
50570;DHT22;36525;49.398;7.614;2023-03-31T03:10:07;9.40;99.90
50570;DHT22;36525;49.398;7.614;2023-03-31T03:12:59;9.40;99.90
50570;DHT22;36525;49.398;7.614;2023-03-31T03:15:49;9.40;99.90
50570;DHT22;36525;49.398;7.614;2023-03-31T03:18:18;9.30;99.90
50570;DHT22;36525;49.398;7.614;2023-03-31T03:20:45;9.40;99.90
50570;DHT22;36525;49.398;7.614;2023-03-31T03:23:17;9.40;99.90
50570;DHT22;36525;49.398;7.614;2023-03-31T03:25:44;9.40;99.90
50570;DHT22;36525;49.398;7.614;2023-03-31T03:28:12;9.30;99.90
50570;DHT22;36525;49.398;7.614;2023-03-31T03:30:39;9.40;99.90
50570;DHT22;36525;49.398;7.614;2023-03-31T03:33:06;9.20;99.90
50570;DHT22;36525;49.398;7.614;2023-03-31T03:35:34;9.20;99.90
50570;DHT22;36525;49.398;7.614;2023-03-31T03:38:01;9.10;99.90
50570;DHT22;36525;49.398;7.614;2023-03-31T03:40:28;9.20;99.90
50570;DHT22;36525;49.398;7.614;2023-03-31T03:42:56;9.10;99.90
50570;DHT22;36525;49.398;7.614;2023-03-31T03:45:23;9.10;99.90
50570;DHT22;36525;49.398;7.614;2023-03-31T03:47:50;9.20;99.90
50570;DHT22;36525;49.398;7.614;2023-03-31T03:50:17;9.20;99.90
50570;DHT22;36525;49.398;7.614;2023-03-31T03:52:44;9.20;99.90
50570;DHT22;36525;49.398;7.614;2023-03-31T03:55:11;9.10;99.90
50570;DHT22;36525;49.398;7.614;2023-03-31T03:57:39;9.20;99.90
50570;DHT22;36525;49.398;7.614;2023-03-31T04:00:07;9.20;99.90
50570;DHT22;36525;49.398;7.614;2023-03-31T04:02:38;9.20;99.90
50570;DHT22;36525;49.398;7.614;2023-03-31T04:05:06;9.20;99.90
50570;DHT22;36525;49.398;7.614;2023-03-31T04:07:33;9.20;99.90
50570;DHT22;36525;49.398;7.614;2023-03-31T04:10:00;9.20;99.90
50570;DHT22;36525;49.398;7.614;2023-03-31T04:12:27;9.20;99.90
50570;DHT22;36525;49.398;7.614;2023-03-31T04:14:54;9.20;99.90
50570;DHT22;36525;49.398;7.614;2023-03-31T04:17:21;9.10;99.90
50570;DHT22;36525;49.398;7.614;2023-03-31T04:20:04;9.10;99.90
50570;DHT22;36525;49.398;7.614;2023-03-31T04:22:36;9.10;99.90
50570;DHT22;36525;49.398;7.614;2023-03-31T04:25:10;9.10;99.90
50570;DHT22;36525;49.398;7.614;2023-03-31T04:27:43;9.10;99.90
50570;DHT22;36525;49.398;7.614;2023-03-31T04:30:17;9.10;99.90
50570;DHT22;36525;49.398;7.614;2023-03-31T04:32:58;9.10;99.90
50570;DHT22;36525;49.398;7.614;2023-03-31T04:35:28;9.10;99.90
50570;DHT22;36525;49.398;7.614;2023-03-31T04:38:08;9.10;99.90
50570;DHT22;36525;49.398;7.614;2023-03-31T04:40:35;9.10;99.90
50570;DHT22;36525;49.398;7.614;2023-03-31T04:43:02;9.00;99.90
50570;DHT22;36525;49.398;7.614;2023-03-31T04:45:29;9.10;99.90
50570;DHT22;36525;49.398;7.614;2023-03-31T04:47:56;9.10;99.90
50570;DHT22;36525;49.398;7.614;2023-03-31T04:50:23;9.00;99.90
50570;DHT22;36525;49.398;7.614;2023-03-31T04:52:50;9.00;99.90
50570;DHT22;36525;49.398;7.614;2023-03-31T04:55:17;8.90;99.90
50570;DHT22;36525;49.398;7.614;2023-03-31T04:57:44;8.90;99.90
50570;DHT22;36525;49.398;7.614;2023-03-31T05:00:12;9.00;99.90
50570;DHT22;36525;49.398;7.614;2023-03-31T05:02:39;9.00;99.90
50570;DHT22;36525;49.398;7.614;2023-03-31T05:05:07;9.00;99.90
50570;DHT22;36525;49.398;7.614;2023-03-31T05:07:34;8.90;99.90
50570;DHT22;36525;49.398;7.614;2023-03-31T05:10:01;9.00;99.90
50570;DHT22;36525;49.398;7.614;2023-03-31T05:12:28;8.90;99.90
50570;DHT22;36525;49.398;7.614;2023-03-31T05:14:55;8.90;99.90
50570;DHT22;36525;49.398;7.614;2023-03-31T05:17:22;9.00;99.90
50570;DHT22;36525;49.398;7.614;2023-03-31T05:19:49;8.90;99.90
50570;DHT22;36525;49.398;7.614;2023-03-31T05:22:16;8.90;99.90
50570;DHT22;36525;49.398;7.614;2023-03-31T05:24:46;9.00;99.90
50570;DHT22;36525;49.398;7.614;2023-03-31T05:27:14;8.90;99.90
50570;DHT22;36525;49.398;7.614;2023-03-31T05:29:42;9.00;99.90
50570;DHT22;36525;49.398;7.614;2023-03-31T05:32:09;8.90;99.90
50570;DHT22;36525;49.398;7.614;2023-03-31T05:34:36;8.90;99.90
50570;DHT22;36525;49.398;7.614;2023-03-31T05:37:03;8.90;99.90
50570;DHT22;36525;49.398;7.614;2023-03-31T05:39:30;9.00;99.90
50570;DHT22;36525;49.398;7.614;2023-03-31T05:41:59;9.00;99.90
50570;DHT22;36525;49.398;7.614;2023-03-31T05:44:28;9.00;99.90
50570;DHT22;36525;49.398;7.614;2023-03-31T05:46:55;9.10;99.90
50570;DHT22;36525;49.398;7.614;2023-03-31T05:49:22;9.10;99.90
50570;DHT22;36525;49.398;7.614;2023-03-31T05:51:49;9.10;99.90
50570;DHT22;36525;49.398;7.614;2023-03-31T05:54:17;9.10;99.90
50570;DHT22;36525;49.398;7.614;2023-03-31T05:56:45;9.10;99.90
50570;DHT22;36525;49.398;7.614;2023-03-31T05:59:12;9.20;99.90
50570;DHT22;36525;49.398;7.614;2023-03-31T06:01:41;9.20;99.90
50570;DHT22;36525;49.398;7.614;2023-03-31T06:04:08;9.30;99.90
50570;DHT22;36525;49.398;7.614;2023-03-31T06:06:35;9.30;99.90
50570;DHT22;36525;49.398;7.614;2023-03-31T06:09:04;9.30;99.90
50570;DHT22;36525;49.398;7.614;2023-03-31T06:11:32;9.40;99.90
50570;DHT22;36525;49.398;7.614;2023-03-31T06:13:58;9.40;99.90
50570;DHT22;36525;49.398;7.614;2023-03-31T06:16:28;9.40;99.90
50570;DHT22;36525;49.398;7.614;2023-03-31T06:18:58;9.50;99.90
50570;DHT22;36525;49.398;7.614;2023-03-31T06:21:25;9.50;99.90
50570;DHT22;36525;49.398;7.614;2023-03-31T06:23:52;9.60;99.90
50570;DHT22;36525;49.398;7.614;2023-03-31T06:26:21;9.50;99.90
50570;DHT22;36525;49.398;7.614;2023-03-31T06:28:49;9.50;99.90
50570;DHT22;36525;49.398;7.614;2023-03-31T06:31:21;9.60;99.90
50570;DHT22;36525;49.398;7.614;2023-03-31T06:33:50;9.60;99.90
50570;DHT22;36525;49.398;7.614;2023-03-31T06:36:19;9.70;99.90
50570;DHT22;36525;49.398;7.614;2023-03-31T06:38:49;9.80;99.90
50570;DHT22;36525;49.398;7.614;2023-03-31T06:41:17;9.80;99.90
50570;DHT22;36525;49.398;7.614;2023-03-31T06:43:46;9.90;99.90
50570;DHT22;36525;49.398;7.614;2023-03-31T06:46:14;9.90;99.90
50570;DHT22;36525;49.398;7.614;2023-03-31T06:48:41;9.90;99.90
50570;DHT22;36525;49.398;7.614;2023-03-31T06:51:09;10.00;99.90
50570;DHT22;36525;49.398;7.614;2023-03-31T06:53:36;10.10;99.90
50570;DHT22;36525;49.398;7.614;2023-03-31T06:56:04;10.20;99.90
50570;DHT22;36525;49.398;7.614;2023-03-31T06:58:33;10.20;99.90
50570;DHT22;36525;49.398;7.614;2023-03-31T07:01:02;10.20;99.90
50570;DHT22;36525;49.398;7.614;2023-03-31T07:03:31;10.30;99.90
50570;DHT22;36525;49.398;7.614;2023-03-31T07:06:01;10.30;99.90
50570;DHT22;36525;49.398;7.614;2023-03-31T07:08:28;10.30;99.90
50570;DHT22;36525;49.398;7.614;2023-03-31T07:10:57;10.40;99.90
50570;DHT22;36525;49.398;7.614;2023-03-31T07:13:26;10.50;99.90
50570;DHT22;36525;49.398;7.614;2023-03-31T07:15:54;10.50;99.90
50570;DHT22;36525;49.398;7.614;2023-03-31T07:18:22;10.50;99.90
50570;DHT22;36525;49.398;7.614;2023-03-31T07:21:01;10.50;99.90
50570;DHT22;36525;49.398;7.614;2023-03-31T07:23:33;10.50;99.90
50570;DHT22;36525;49.398;7.614;2023-03-31T07:26:01;10.50;99.90
50570;DHT22;36525;49.398;7.614;2023-03-31T07:28:29;10.40;99.90
50570;DHT22;36525;49.398;7.614;2023-03-31T07:30:56;10.20;99.90
50570;DHT22;36525;49.398;7.614;2023-03-31T07:33:23;9.80;99.90
50570;DHT22;36525;49.398;7.614;2023-03-31T07:35:50;9.60;99.90
50570;DHT22;36525;49.398;7.614;2023-03-31T07:38:33;9.70;99.90
50570;DHT22;36525;49.398;7.614;2023-03-31T07:41:00;9.70;99.90
50570;DHT22;36525;49.398;7.614;2023-03-31T07:43:35;9.70;99.90
50570;DHT22;36525;49.398;7.614;2023-03-31T07:46:02;9.70;99.90
50570;DHT22;36525;49.398;7.614;2023-03-31T07:48:32;9.90;99.90
50570;DHT22;36525;49.398;7.614;2023-03-31T07:50:59;9.90;99.90
50570;DHT22;36525;49.398;7.614;2023-03-31T07:53:27;10.00;99.90
50570;DHT22;36525;49.398;7.614;2023-03-31T07:55:55;10.10;99.90
50570;DHT22;36525;49.398;7.614;2023-03-31T07:58:22;10.20;99.90
50570;DHT22;36525;49.398;7.614;2023-03-31T08:00:48;10.20;99.90
50570;DHT22;36525;49.398;7.614;2023-03-31T08:03:16;10.20;99.90
50570;DHT22;36525;49.398;7.614;2023-03-31T08:05:43;10.10;99.90
50570;DHT22;36525;49.398;7.614;2023-03-31T08:08:12;10.10;99.90
50570;DHT22;36525;49.398;7.614;2023-03-31T08:10:42;10.10;99.90
50570;DHT22;36525;49.398;7.614;2023-03-31T08:13:09;10.20;99.90
50570;DHT22;36525;49.398;7.614;2023-03-31T08:15:36;10.20;99.90
50570;DHT22;36525;49.398;7.614;2023-03-31T08:18:04;10.20;99.90
50570;DHT22;36525;49.398;7.614;2023-03-31T08:20:32;10.30;99.90
50570;DHT22;36525;49.398;7.614;2023-03-31T08:22:59;10.30;99.90
50570;DHT22;36525;49.398;7.614;2023-03-31T08:25:26;10.30;99.90
50570;DHT22;36525;49.398;7.614;2023-03-31T08:27:52;10.40;99.90
50570;DHT22;36525;49.398;7.614;2023-03-31T08:30:19;10.40;99.90
50570;DHT22;36525;49.398;7.614;2023-03-31T08:32:46;10.40;99.90
50570;DHT22;36525;49.398;7.614;2023-03-31T08:35:14;10.20;99.90
50570;DHT22;36525;49.398;7.614;2023-03-31T08:37:41;10.10;99.90
50570;DHT22;36525;49.398;7.614;2023-03-31T08:40:15;10.00;99.90
50570;DHT22;36525;49.398;7.614;2023-03-31T08:42:49;9.80;99.90
50570;DHT22;36525;49.398;7.614;2023-03-31T08:45:30;9.50;99.90
50570;DHT22;36525;49.398;7.614;2023-03-31T08:51:02;9.00;99.90
50570;DHT22;36525;49.398;7.614;2023-03-31T08:53:36;8.70;99.90
50570;DHT22;36525;49.398;7.614;2023-03-31T08:56:26;8.60;99.90
50570;DHT22;36525;49.398;7.614;2023-03-31T08:58:53;8.60;99.90
50570;DHT22;36525;49.398;7.614;2023-03-31T09:10:49;9.00;99.90
50570;DHT22;36525;49.398;7.614;2023-03-31T09:14:20;9.00;99.90
50570;DHT22;36525;49.398;7.614;2023-03-31T09:16:21;9.10;99.90
50570;DHT22;36525;49.398;7.614;2023-03-31T09:18:54;9.00;99.90
50570;DHT22;36525;49.398;7.614;2023-03-31T09:21:34;8.90;99.90
50570;DHT22;36525;49.398;7.614;2023-03-31T09:24:22;8.80;99.90
50570;DHT22;36525;49.398;7.614;2023-03-31T09:27:00;8.90;99.90
50570;DHT22;36525;49.398;7.614;2023-03-31T09:29:34;9.00;99.90
50570;DHT22;36525;49.398;7.614;2023-03-31T09:32:15;9.30;99.90
50570;DHT22;36525;49.398;7.614;2023-03-31T09:34:51;9.90;99.90
50570;DHT22;36525;49.398;7.614;2023-03-31T09:37:27;10.20;99.90
50570;DHT22;36525;49.398;7.614;2023-03-31T09:40:02;10.30;99.90
50570;DHT22;36525;49.398;7.614;2023-03-31T09:42:37;10.40;99.90
50570;DHT22;36525;49.398;7.614;2023-03-31T09:45:04;10.70;99.90
50570;DHT22;36525;49.398;7.614;2023-03-31T09:47:41;10.90;99.90
50570;DHT22;36525;49.398;7.614;2023-03-31T09:50:10;10.90;99.90
50570;DHT22;36525;49.398;7.614;2023-03-31T09:52:41;10.80;99.90
50570;DHT22;36525;49.398;7.614;2023-03-31T09:58:06;11.00;99.90
50570;DHT22;36525;49.398;7.614;2023-03-31T10:00:34;11.00;99.90
50570;DHT22;36525;49.398;7.614;2023-03-31T10:03:03;11.00;99.90
50570;DHT22;36525;49.398;7.614;2023-03-31T10:05:36;10.90;99.90
50570;DHT22;36525;49.398;7.614;2023-03-31T10:08:28;11.00;99.90
50570;DHT22;36525;49.398;7.614;2023-03-31T10:13:48;11.20;99.90
50570;DHT22;36525;49.398;7.614;2023-03-31T10:16:52;11.30;99.90
50570;DHT22;36525;49.398;7.614;2023-03-31T10:19:23;11.30;99.90
50570;DHT22;36525;49.398;7.614;2023-03-31T10:24:49;11.00;99.90
50570;DHT22;36525;49.398;7.614;2023-03-31T10:29:59;10.60;99.90
50570;DHT22;36525;49.398;7.614;2023-03-31T10:32:38;10.60;99.90
50570;DHT22;36525;49.398;7.614;2023-03-31T10:35:31;10.60;99.90
50570;DHT22;36525;49.398;7.614;2023-03-31T10:38:33;11.00;99.90
50570;DHT22;36525;49.398;7.614;2023-03-31T10:41:02;11.50;99.90
50570;DHT22;36525;49.398;7.614;2023-03-31T10:43:41;11.90;99.90
50570;DHT22;36525;49.398;7.614;2023-03-31T10:46:16;12.10;99.90
50570;DHT22;36525;49.398;7.614;2023-03-31T10:48:44;12.30;99.90
50570;DHT22;36525;49.398;7.614;2023-03-31T10:51:25;12.50;99.90
50570;DHT22;36525;49.398;7.614;2023-03-31T10:54:00;12.50;99.90
50570;DHT22;36525;49.398;7.614;2023-03-31T10:56:40;12.40;99.90
50570;DHT22;36525;49.398;7.614;2023-03-31T11:05:38;12.20;99.90
50570;DHT22;36525;49.398;7.614;2023-03-31T11:16:29;11.40;99.90
50570;DHT22;36525;49.398;7.614;2023-03-31T11:41:07;10.70;99.90
50570;DHT22;36525;49.398;7.614;2023-03-31T11:43:57;10.80;99.90
50570;DHT22;36525;49.398;7.614;2023-03-31T11:46:36;11.00;99.90
50570;DHT22;36525;49.398;7.614;2023-03-31T11:49:31;11.30;99.90
50570;DHT22;36525;49.398;7.614;2023-03-31T11:52:14;11.50;99.90
50570;DHT22;36525;49.398;7.614;2023-03-31T11:55:11;11.80;99.90
50570;DHT22;36525;49.398;7.614;2023-03-31T11:57:47;11.90;99.90
50570;DHT22;36525;49.398;7.614;2023-03-31T12:00:43;12.00;99.90
50570;DHT22;36525;49.398;7.614;2023-03-31T12:03:15;11.80;99.90
50570;DHT22;36525;49.398;7.614;2023-03-31T12:05:55;11.90;99.90
50570;DHT22;36525;49.398;7.614;2023-03-31T12:08:37;12.00;99.90
50570;DHT22;36525;49.398;7.614;2023-03-31T12:11:08;11.90;99.90
50570;DHT22;36525;49.398;7.614;2023-03-31T12:13:46;12.10;99.90
50570;DHT22;36525;49.398;7.614;2023-03-31T12:16:37;12.20;99.90
50570;DHT22;36525;49.398;7.614;2023-03-31T12:19:12;12.20;99.90
50570;DHT22;36525;49.398;7.614;2023-03-31T12:21:49;12.20;99.90
50570;DHT22;36525;49.398;7.614;2023-03-31T12:24:18;12.40;99.90
50570;DHT22;36525;49.398;7.614;2023-03-31T12:29:45;12.60;99.90
50570;DHT22;36525;49.398;7.614;2023-03-31T12:32:21;12.50;99.90
50570;DHT22;36525;49.398;7.614;2023-03-31T12:34:58;12.40;99.90
50570;DHT22;36525;49.398;7.614;2023-03-31T12:40:25;11.90;99.90
50570;DHT22;36525;49.398;7.614;2023-03-31T12:51:58;11.90;99.90
50570;DHT22;36525;49.398;7.614;2023-03-31T12:55:00;11.70;99.90
50570;DHT22;36525;49.398;7.614;2023-03-31T12:57:30;11.50;99.90
50570;DHT22;36525;49.398;7.614;2023-03-31T13:02:40;11.60;99.90
50570;DHT22;36525;49.398;7.614;2023-03-31T13:08:04;11.90;99.90
50570;DHT22;36525;49.398;7.614;2023-03-31T13:10:32;11.80;99.90
50570;DHT22;36525;49.398;7.614;2023-03-31T13:13:19;11.70;99.90
50570;DHT22;36525;49.398;7.614;2023-03-31T13:15:57;11.20;99.90
50570;DHT22;36525;49.398;7.614;2023-03-31T13:18:27;10.90;99.90
50570;DHT22;36525;49.398;7.614;2023-03-31T13:21:05;10.60;99.90
50570;DHT22;36525;49.398;7.614;2023-03-31T13:23:34;10.30;99.90
50570;DHT22;36525;49.398;7.614;2023-03-31T13:26:03;10.20;99.90
50570;DHT22;36525;49.398;7.614;2023-03-31T13:28:38;10.10;99.90
50570;DHT22;36525;49.398;7.614;2023-03-31T13:31:12;10.20;99.90
50570;DHT22;36525;49.398;7.614;2023-03-31T13:50:52;13.40;99.90
50570;DHT22;36525;49.398;7.614;2023-03-31T13:54:02;13.50;99.90
50570;DHT22;36525;49.398;7.614;2023-03-31T13:57:09;13.00;99.90
50570;DHT22;36525;49.398;7.614;2023-03-31T14:08:53;11.40;99.90
50570;DHT22;36525;49.398;7.614;2023-03-31T14:14:05;11.20;99.90
50570;DHT22;36525;49.398;7.614;2023-03-31T14:16:59;10.90;99.90
50570;DHT22;36525;49.398;7.614;2023-03-31T14:31:11;11.10;99.90
50570;DHT22;36525;49.398;7.614;2023-03-31T14:34:11;11.10;99.90
50570;DHT22;36525;49.398;7.614;2023-03-31T14:39:57;10.90;99.90
50570;DHT22;36525;49.398;7.614;2023-03-31T14:42:40;11.30;99.90
50570;DHT22;36525;49.398;7.614;2023-03-31T14:45:21;11.30;99.90
50570;DHT22;36525;49.398;7.614;2023-03-31T14:47:58;11.30;99.90
50570;DHT22;36525;49.398;7.614;2023-03-31T14:50:33;11.10;99.90
50570;DHT22;36525;49.398;7.614;2023-03-31T14:53:01;11.00;99.90
50570;DHT22;36525;49.398;7.614;2023-03-31T14:55:32;11.00;99.90
50570;DHT22;36525;49.398;7.614;2023-03-31T14:58:28;11.00;99.90
50570;DHT22;36525;49.398;7.614;2023-03-31T15:00:57;11.00;99.90
50570;DHT22;36525;49.398;7.614;2023-03-31T15:03:25;10.90;99.90
50570;DHT22;36525;49.398;7.614;2023-03-31T15:05:57;10.80;99.90
50570;DHT22;36525;49.398;7.614;2023-03-31T15:08:25;10.70;99.90
50570;DHT22;36525;49.398;7.614;2023-03-31T15:10:56;10.90;99.90
50570;DHT22;36525;49.398;7.614;2023-03-31T15:13:47;10.80;99.90
50570;DHT22;36525;49.398;7.614;2023-03-31T15:16:40;10.90;99.90
50570;DHT22;36525;49.398;7.614;2023-03-31T15:19:30;10.70;99.90
50570;DHT22;36525;49.398;7.614;2023-03-31T15:22:17;10.60;99.90
50570;DHT22;36525;49.398;7.614;2023-03-31T15:24:44;10.60;99.90
50570;DHT22;36525;49.398;7.614;2023-03-31T15:30:11;10.70;99.90
50570;DHT22;36525;49.398;7.614;2023-03-31T15:32:41;10.70;99.90
50570;DHT22;36525;49.398;7.614;2023-03-31T15:35:31;10.80;99.90
50570;DHT22;36525;49.398;7.614;2023-03-31T15:38:02;10.90;99.90
50570;DHT22;36525;49.398;7.614;2023-03-31T15:40:39;10.90;99.90
50570;DHT22;36525;49.398;7.614;2023-03-31T15:43:16;10.80;99.90
50570;DHT22;36525;49.398;7.614;2023-03-31T15:45:59;10.70;99.90
50570;DHT22;36525;49.398;7.614;2023-03-31T15:48:34;10.60;99.90
50570;DHT22;36525;49.398;7.614;2023-03-31T15:53:48;10.60;99.90
50570;DHT22;36525;49.398;7.614;2023-03-31T15:56:43;10.60;99.90
50570;DHT22;36525;49.398;7.614;2023-03-31T15:59:26;10.60;99.90
50570;DHT22;36525;49.398;7.614;2023-03-31T16:02:15;10.70;99.90
50570;DHT22;36525;49.398;7.614;2023-03-31T16:04:47;10.80;99.90
50570;DHT22;36525;49.398;7.614;2023-03-31T16:07:25;10.80;99.90
50570;DHT22;36525;49.398;7.614;2023-03-31T16:10:03;10.80;99.90
50570;DHT22;36525;49.398;7.614;2023-03-31T16:15:41;10.80;99.90
50570;DHT22;36525;49.398;7.614;2023-03-31T16:18:40;10.90;99.90
50570;DHT22;36525;49.398;7.614;2023-03-31T16:21:09;10.80;99.90
50570;DHT22;36525;49.398;7.614;2023-03-31T16:23:39;10.80;99.90
50570;DHT22;36525;49.398;7.614;2023-03-31T16:26:07;10.80;99.90
50570;DHT22;36525;49.398;7.614;2023-03-31T16:28:35;10.80;99.90
50570;DHT22;36525;49.398;7.614;2023-03-31T16:31:04;10.70;99.90
50570;DHT22;36525;49.398;7.614;2023-03-31T16:33:52;10.70;99.90
50570;DHT22;36525;49.398;7.614;2023-03-31T16:36:21;10.70;99.90
50570;DHT22;36525;49.398;7.614;2023-03-31T16:38:51;10.70;99.90
50570;DHT22;36525;49.398;7.614;2023-03-31T16:41:24;10.70;99.90
50570;DHT22;36525;49.398;7.614;2023-03-31T16:43:53;10.70;99.90
50570;DHT22;36525;49.398;7.614;2023-03-31T16:46:21;10.60;99.90
50570;DHT22;36525;49.398;7.614;2023-03-31T16:48:50;10.60;99.90
50570;DHT22;36525;49.398;7.614;2023-03-31T16:51:17;10.40;99.90
50570;DHT22;36525;49.398;7.614;2023-03-31T16:53:46;10.40;99.90
50570;DHT22;36525;49.398;7.614;2023-03-31T16:56:14;10.30;99.90
50570;DHT22;36525;49.398;7.614;2023-03-31T16:58:41;10.20;99.90
50570;DHT22;36525;49.398;7.614;2023-03-31T17:01:09;10.10;99.90
50570;DHT22;36525;49.398;7.614;2023-03-31T17:03:37;10.00;99.90
50570;DHT22;36525;49.398;7.614;2023-03-31T17:06:11;10.00;99.90
50570;DHT22;36525;49.398;7.614;2023-03-31T17:08:39;9.90;99.90
50570;DHT22;36525;49.398;7.614;2023-03-31T17:11:09;9.80;99.90
50570;DHT22;36525;49.398;7.614;2023-03-31T17:13:38;9.90;99.90
50570;DHT22;36525;49.398;7.614;2023-03-31T17:16:07;9.80;99.90
50570;DHT22;36525;49.398;7.614;2023-03-31T17:18:49;9.80;99.90
50570;DHT22;36525;49.398;7.614;2023-03-31T17:21:17;9.70;99.90
50570;DHT22;36525;49.398;7.614;2023-03-31T17:23:45;9.70;99.90
50570;DHT22;36525;49.398;7.614;2023-03-31T17:26:13;9.70;99.90
50570;DHT22;36525;49.398;7.614;2023-03-31T17:28:41;9.70;99.90
50570;DHT22;36525;49.398;7.614;2023-03-31T17:31:19;9.70;99.90
50570;DHT22;36525;49.398;7.614;2023-03-31T17:33:48;9.70;99.90
50570;DHT22;36525;49.398;7.614;2023-03-31T17:36:16;9.80;99.90
50570;DHT22;36525;49.398;7.614;2023-03-31T17:38:43;9.80;99.90
50570;DHT22;36525;49.398;7.614;2023-03-31T17:41:12;9.70;99.90
50570;DHT22;36525;49.398;7.614;2023-03-31T17:43:42;9.80;99.90
50570;DHT22;36525;49.398;7.614;2023-03-31T17:46:10;9.80;99.90
50570;DHT22;36525;49.398;7.614;2023-03-31T17:48:39;9.80;99.90
50570;DHT22;36525;49.398;7.614;2023-03-31T17:51:08;9.80;99.90
50570;DHT22;36525;49.398;7.614;2023-03-31T17:53:43;9.80;99.90
50570;DHT22;36525;49.398;7.614;2023-03-31T18:10:31;9.80;99.90
50570;DHT22;36525;49.398;7.614;2023-03-31T18:13:00;9.60;99.90
50570;DHT22;36525;49.398;7.614;2023-03-31T18:15:27;9.50;99.90
50570;DHT22;36525;49.398;7.614;2023-03-31T18:17:54;9.40;99.90
50570;DHT22;36525;49.398;7.614;2023-03-31T18:20:21;9.40;99.90
50570;DHT22;36525;49.398;7.614;2023-03-31T18:22:49;9.30;99.90
50570;DHT22;36525;49.398;7.614;2023-03-31T18:25:16;9.30;99.90
50570;DHT22;36525;49.398;7.614;2023-03-31T18:27:44;9.10;99.90
50570;DHT22;36525;49.398;7.614;2023-03-31T18:30:12;9.10;99.90
50570;DHT22;36525;49.398;7.614;2023-03-31T18:32:39;9.00;99.90
50570;DHT22;36525;49.398;7.614;2023-03-31T18:35:07;8.90;99.90
50570;DHT22;36525;49.398;7.614;2023-03-31T18:37:35;8.80;99.90
50570;DHT22;36525;49.398;7.614;2023-03-31T18:40:02;8.80;99.90
50570;DHT22;36525;49.398;7.614;2023-03-31T18:42:32;8.80;99.90
50570;DHT22;36525;49.398;7.614;2023-03-31T18:45:00;8.70;99.90
50570;DHT22;36525;49.398;7.614;2023-03-31T18:47:27;8.80;99.90
50570;DHT22;36525;49.398;7.614;2023-03-31T18:49:54;8.70;99.90
50570;DHT22;36525;49.398;7.614;2023-03-31T18:52:22;8.70;99.90
50570;DHT22;36525;49.398;7.614;2023-03-31T18:54:49;8.70;99.90
50570;DHT22;36525;49.398;7.614;2023-03-31T18:57:17;8.80;99.90
50570;DHT22;36525;49.398;7.614;2023-03-31T18:59:50;8.80;99.90
50570;DHT22;36525;49.398;7.614;2023-03-31T19:02:17;8.70;99.90
50570;DHT22;36525;49.398;7.614;2023-03-31T19:04:49;8.70;99.90
50570;DHT22;36525;49.398;7.614;2023-03-31T19:07:19;8.70;99.90